X  Fechar Dados meteorológicos de METAR da aviação     KBDL Bradley International Airport
Temperatura
21°C Temperatura
13°C Ponto de orvalho
60% Umidade



Vento
13 KM/H
8 MPH
4 M/S
7 NÓS



330°
NNO
Condições atuais

Muito nublado Muito nublado
Pressão 1007.45 (hPa) - 29.75 (inHg)
Visibilidade 10 (milha) - 16.1 (km)
Aeroporto
Código do aeroporto KBDL

Localização: Bradley International Airport
Distância: 21 (km)

Metar:
KBDL 250451Z 33007KT 10SM BKN100 21/13 A2975 RMK AO2 SLP072 T02060128 402780206

Hora: 06-25-2024 12:51 am EDT